createdAt,value
2018-06-08T00:01:48.615Z,101508.92
2018-06-08T00:04:17.828Z,101504.52
2018-06-08T00:06:46.924Z,101495.98
2018-06-08T00:09:15.936Z,101504.59
2018-06-08T00:11:44.960Z,101499.20
2018-06-08T00:14:14.036Z,101500.73
2018-06-08T00:16:43.192Z,101500.83
2018-06-08T00:19:12.160Z,101514.84
2018-06-08T00:21:41.283Z,101502.03
2018-06-08T00:24:10.296Z,101507.72
2018-06-08T00:26:39.332Z,101510.76
2018-06-08T00:29:08.724Z,101515.89
2018-06-08T00:31:38.026Z,101517.08
2018-06-08T00:34:07.904Z,101520.53
2018-06-08T00:36:36.944Z,101521.54
2018-06-08T00:39:08.730Z,101519.79
2018-06-08T00:41:37.912Z,101510.59
2018-06-08T00:44:06.934Z,101508.81
2018-06-08T00:46:36.384Z,101507.91
2018-06-08T00:49:05.526Z,101505.00
2018-06-08T00:51:35.046Z,101504.47
2018-06-08T00:54:04.077Z,101495.56
2018-06-08T00:56:45.478Z,101490.47
2018-06-08T00:59:14.548Z,101488.42
2018-06-08T01:01:43.588Z,101490.55
2018-06-08T01:04:12.625Z,101488.10
2018-06-08T01:06:41.704Z,101490.20
2018-06-08T01:09:11.024Z,101483.39
2018-06-08T01:11:40.072Z,101492.45
2018-06-08T01:14:09.104Z,101494.33
2018-06-08T01:16:39.178Z,101493.75
2018-06-08T01:19:08.532Z,101496.58
2018-06-08T01:21:37.572Z,101499.78
2018-06-08T01:24:07.107Z,101496.81
2018-06-08T01:26:36.448Z,101496.38
2018-06-08T01:29:05.520Z,101501.42
2018-06-08T01:31:34.512Z,101496.80
2018-06-08T01:34:03.552Z,101496.01
2018-06-08T01:36:32.604Z,101495.43
2018-06-08T01:39:01.614Z,101491.98
2018-06-08T01:41:31.130Z,101491.44
2018-06-08T01:44:00.120Z,101487.94
2018-06-08T01:46:29.132Z,101489.52
2018-06-08T01:48:58.484Z,101484.98
2018-06-08T01:51:27.551Z,101483.67
2018-06-08T01:53:57.764Z,101491.51
2018-06-08T02:09:27.053Z,101485.24
2018-06-08T02:11:56.054Z,101482.61
2018-06-08T02:14:25.340Z,101483.55
2018-06-08T02:16:55.236Z,101479.29
2018-06-08T02:19:24.260Z,101481.06
2018-06-08T02:21:53.268Z,101476.91
2018-06-08T02:24:23.005Z,101473.59
2018-06-08T02:26:52.016Z,101475.62
2018-06-08T02:29:21.150Z,101475.94
2018-06-08T02:31:50.238Z,101470.73
2018-06-08T02:34:20.169Z,101470.91
2018-06-08T02:36:49.198Z,101471.83
2018-06-08T02:39:23.149Z,101476.66
2018-06-08T02:41:52.210Z,101477.98
2018-06-08T02:44:21.553Z,101470.73
2018-06-08T02:46:51.051Z,101461.48
2018-06-08T02:49:20.089Z,101455.78
2018-06-08T02:51:49.234Z,101453.56
2018-06-08T02:54:18.226Z,101451.53
2018-06-08T02:56:47.245Z,101449.75
2018-06-08T02:59:16.247Z,101452.76
2018-06-08T03:01:45.287Z,101451.28
2018-06-08T03:04:14.349Z,101442.75
2018-06-08T03:06:44.310Z,101443.94
2018-06-08T03:09:13.316Z,101442.25
2018-06-08T03:11:42.616Z,101442.30
2018-06-08T03:14:11.634Z,101434.98
2018-06-08T03:16:42.010Z,101434.44
2018-06-08T03:19:11.335Z,101430.47
2018-06-08T03:21:47.121Z,101431.11
2018-06-08T03:24:16.172Z,101434.73
2018-06-08T03:26:45.219Z,101443.06
2018-06-08T03:29:14.804Z,101449.97
2018-06-08T03:31:43.950Z,101451.21
2018-06-08T03:34:12.963Z,101449.64
2018-06-08T03:36:43.002Z,101457.78
2018-06-08T03:39:12.122Z,101460.78
2018-06-08T03:41:41.139Z,101452.61
2018-06-08T03:44:10.153Z,101462.53
2018-06-08T03:46:39.207Z,101459.84
2018-06-08T03:49:08.204Z,101460.14
2018-06-08T03:51:37.227Z,101469.45
2018-06-08T03:54:06.280Z,101466.27
2018-06-08T03:56:35.766Z,101466.73
2018-06-08T03:59:04.882Z,101470.09
2018-06-08T04:01:33.942Z,101471.27
2018-06-08T04:04:03.077Z,101473.05
2018-06-08T04:06:37.713Z,101467.02
2018-06-08T04:09:12.277Z,101470.11
2018-06-08T04:11:41.967Z,101468.50
2018-06-08T04:14:11.090Z,101467.67
2018-06-08T04:16:40.077Z,101462.80
2018-06-08T04:19:09.543Z,101468.48
2018-06-08T04:21:38.555Z,101471.08
2018-06-08T04:24:07.615Z,101473.97
2018-06-08T04:26:36.663Z,101480.95
2018-06-08T04:29:05.852Z,101482.20
2018-06-08T04:31:34.879Z,101480.74
2018-06-08T04:34:03.957Z,101483.25
2018-06-08T04:36:33.631Z,101484.13
2018-06-08T04:52:02.684Z,101485.00
2018-06-08T04:54:31.706Z,101487.05
2018-06-08T05:10:05.756Z,101489.78
2018-06-08T05:12:34.770Z,101494.63
2018-06-08T05:15:03.836Z,101491.81
2018-06-08T05:17:33.757Z,101493.92
2018-06-08T05:20:03.711Z,101484.94
2018-06-08T05:22:33.183Z,101489.05
2018-06-08T05:25:02.219Z,101490.26
2018-06-08T05:27:31.301Z,101492.78
2018-06-08T05:30:00.429Z,101497.03
2018-06-08T05:32:29.812Z,101499.04
2018-06-08T05:34:58.940Z,101497.48
2018-06-08T05:37:28.010Z,101497.03
2018-06-08T05:39:57.014Z,101497.34
2018-06-08T05:42:26.038Z,101498.79
2018-06-08T05:44:55.072Z,101485.38
2018-06-08T05:47:24.120Z,101502.48
2018-06-08T05:49:53.529Z,101502.46
2018-06-08T05:52:22.534Z,101505.20
2018-06-08T05:54:51.587Z,101512.64
2018-06-08T05:57:20.635Z,101507.53
2018-06-08T05:59:49.667Z,101511.72
2018-06-08T06:02:19.276Z,101515.43
2018-06-08T06:04:48.304Z,101516.28
2018-06-08T06:07:22.902Z,101513.92
2018-06-08T06:09:51.944Z,101517.50
2018-06-08T06:12:21.028Z,101522.42
2018-06-08T06:14:50.096Z,101518.96
2018-06-08T06:17:19.153Z,101518.55
2018-06-08T06:19:48.170Z,101520.21
2018-06-08T06:22:17.186Z,101526.27
2018-06-08T06:24:46.904Z,101526.20
2018-06-08T06:27:15.985Z,101531.12
2018-06-08T06:29:45.079Z,101534.48
2018-06-08T06:32:14.132Z,101531.77
2018-06-08T06:34:43.144Z,101535.99
2018-06-08T06:37:12.281Z,101531.96
2018-06-08T06:39:46.347Z,101529.80
2018-06-08T06:42:15.415Z,101534.77
2018-06-08T06:44:44.824Z,101532.48
2018-06-08T06:47:13.997Z,101531.78
2018-06-08T06:49:43.157Z,101538.42
2018-06-08T06:52:12.211Z,101539.31
2018-06-08T06:54:41.436Z,101544.81
2018-06-08T06:57:10.597Z,101538.14
2018-06-08T06:59:39.896Z,101541.70
2018-06-08T07:02:09.088Z,101541.52
2018-06-08T07:04:38.114Z,101548.93
2018-06-08T07:07:07.234Z,101548.12
2018-06-08T07:09:36.252Z,101557.22
2018-06-08T07:12:05.272Z,101554.04
2018-06-08T07:14:34.300Z,101555.77
2018-06-08T07:17:03.321Z,101553.17
2018-06-08T07:19:32.398Z,101560.84
2018-06-08T07:22:01.508Z,101558.78
2018-06-08T07:24:30.826Z,101565.16
2018-06-08T07:26:59.906Z,101567.22
2018-06-08T07:29:29.821Z,101574.48
2018-06-08T07:31:58.999Z,101565.16
2018-06-08T07:34:28.075Z,101565.16
2018-06-08T07:36:58.213Z,101567.88
2018-06-08T07:39:27.353Z,101569.67
2018-06-08T07:41:56.380Z,101563.88
2018-06-08T07:44:25.409Z,101561.08
2018-06-08T07:46:54.476Z,101566.66
2018-06-08T07:49:23.550Z,101564.69
2018-06-08T07:51:52.589Z,101567.80
2018-06-08T07:54:21.655Z,101560.23
2018-06-08T07:56:51.232Z,101562.13
2018-06-08T07:59:20.956Z,101567.63
2018-06-08T08:01:50.043Z,101566.49
2018-06-08T08:04:19.033Z,101569.63
2018-06-08T08:06:48.321Z,101567.84
2018-06-08T08:09:17.521Z,101572.31
2018-06-08T08:11:46.532Z,101572.05
2018-06-08T08:14:15.605Z,101573.77
2018-06-08T08:16:45.668Z,101571.48
2018-06-08T08:19:14.711Z,101583.84
2018-06-08T08:21:43.739Z,101573.74
2018-06-08T08:24:13.055Z,101575.60
2018-06-08T08:26:42.065Z,101569.51
2018-06-08T08:29:11.174Z,101574.47
2018-06-08T08:31:45.891Z,101568.45
2018-06-08T08:34:20.673Z,101565.75
2018-06-08T08:36:49.710Z,101571.09
2018-06-08T08:39:18.735Z,101575.42
2018-06-08T08:41:47.832Z,101570.60
2018-06-08T08:44:21.812Z,101568.50
2018-06-08T08:46:50.867Z,101575.09
2018-06-08T08:49:19.888Z,101567.95
2018-06-08T08:51:48.981Z,101568.83
2018-06-08T08:54:18.015Z,101565.50
2018-06-08T08:56:47.092Z,101574.67
2018-06-08T08:59:16.102Z,101576.14
2018-06-08T09:01:45.134Z,101572.66
2018-06-08T09:04:14.222Z,101576.23
2018-06-08T09:06:43.216Z,101581.27
2018-06-08T09:09:12.549Z,101582.19
2018-06-08T09:11:41.593Z,101577.48
2018-06-08T09:14:10.604Z,101572.80
2018-06-08T09:16:39.677Z,101581.19
2018-06-08T09:19:09.596Z,101576.37
2018-06-08T09:21:38.668Z,101582.78
2018-06-08T09:24:07.792Z,101581.41
2018-06-08T09:26:36.792Z,101580.23
2018-06-08T09:29:05.837Z,101581.84
2018-06-08T09:31:35.408Z,101579.78
2018-06-08T09:34:04.772Z,101585.52
2018-06-08T09:36:33.796Z,101585.11
2018-06-08T09:39:04.516Z,101586.48
2018-06-08T09:41:33.528Z,101583.77
2018-06-08T09:44:02.702Z,101592.31
2018-06-08T09:46:31.739Z,101594.86
2018-06-08T09:49:01.174Z,101597.84
2018-06-08T09:51:30.161Z,101600.46
2018-06-08T09:53:59.788Z,101602.30
2018-06-08T09:56:28.889Z,101601.59
2018-06-08T09:58:58.070Z,101602.83
2018-06-08T10:01:27.184Z,101597.39
2018-06-08T10:03:56.196Z,101605.56
2018-06-08T10:06:25.228Z,101610.89
2018-06-08T10:08:54.240Z,101601.53
2018-06-08T10:11:23.260Z,101607.08
2018-06-08T10:13:52.258Z,101611.52
2018-06-08T10:16:21.308Z,101607.30
2018-06-08T10:18:50.355Z,101605.80
2018-06-08T10:21:19.428Z,101609.72
2018-06-08T10:23:48.493Z,101610.25
2018-06-08T10:26:17.800Z,101608.53
2018-06-08T10:28:46.780Z,101604.17
2018-06-08T10:31:15.956Z,101608.98
2018-06-08T10:33:44.932Z,101611.95
2018-06-08T10:36:14.358Z,101620.78
2018-06-08T10:38:43.368Z,101617.67
2018-06-08T10:41:12.700Z,101615.81
2018-06-08T10:43:41.739Z,101617.41
2018-06-08T10:46:10.736Z,101617.28
2018-06-08T11:01:39.756Z,101597.56
2018-06-08T11:04:08.742Z,101602.03
2018-06-08T11:06:38.027Z,101601.66
2018-06-08T11:09:08.817Z,101597.14
2018-06-08T11:11:37.858Z,101600.61
2018-06-08T11:14:06.912Z,101593.59
2018-06-08T11:16:36.312Z,101593.83
2018-06-08T11:19:05.366Z,101593.59
2018-06-08T11:21:34.425Z,101584.44
2018-06-08T11:24:03.410Z,101579.50
2018-06-08T11:26:33.056Z,101573.83
2018-06-08T11:29:02.072Z,101579.61
2018-06-08T11:31:31.087Z,101579.38
2018-06-08T11:34:00.150Z,101580.75
2018-06-08T11:36:29.188Z,101580.33
2018-06-08T11:38:58.246Z,101575.18
2018-06-08T11:41:27.376Z,101582.59
2018-06-08T11:43:56.429Z,101567.02
2018-06-08T11:46:25.694Z,101575.69
2018-06-08T11:48:54.782Z,101569.23
2018-06-08T11:51:23.882Z,101568.11
2018-06-08T11:53:52.894Z,101567.03
2018-06-08T11:56:21.980Z,101567.02
2018-06-08T11:58:51.690Z,101569.13
2018-06-08T12:01:21.691Z,101567.38
2018-06-08T12:03:50.712Z,101564.92
2018-06-08T12:06:19.900Z,101559.95
2018-06-08T12:08:48.816Z,101560.73
2018-06-08T12:11:17.865Z,101558.01
2018-06-08T12:13:47.540Z,101556.38
2018-06-08T12:16:16.712Z,101555.02
2018-06-08T12:18:46.485Z,101553.19
2018-06-08T12:21:15.628Z,101545.03
2018-06-08T12:23:44.714Z,101537.84
2018-06-08T12:26:13.750Z,101541.41
2018-06-08T12:28:42.769Z,101538.58
2018-06-08T12:31:11.981Z,101530.29
2018-06-08T12:33:41.060Z,101531.43
2018-06-08T12:36:10.173Z,101527.10
2018-06-08T12:38:40.380Z,101522.88
2018-06-08T12:41:09.396Z,101520.64
2018-06-08T12:43:38.440Z,101516.91
2018-06-08T12:46:07.541Z,101516.84
2018-06-08T12:48:36.588Z,101511.20
2018-06-08T12:51:05.738Z,101501.66
2018-06-08T12:53:34.767Z,101503.42
2018-06-08T12:56:03.808Z,101504.50
2018-06-08T12:58:32.835Z,101509.20
2018-06-08T13:01:02.836Z,101508.53
2018-06-08T13:03:31.857Z,101510.47
2018-06-08T13:06:01.180Z,101507.16
2018-06-08T13:08:30.311Z,101517.30
2018-06-08T13:10:59.506Z,101515.13
2018-06-08T13:13:28.493Z,101509.63
2018-06-08T13:15:57.518Z,101506.44
2018-06-08T13:18:27.126Z,101509.58
2018-06-08T13:20:56.239Z,101512.14
2018-06-08T13:23:25.395Z,101502.00
2018-06-08T13:25:54.407Z,101500.89
2018-06-08T13:28:23.405Z,101501.84
2018-06-08T13:30:52.668Z,101501.41
2018-06-08T13:33:21.705Z,101502.70
2018-06-08T13:35:50.715Z,101498.22
2018-06-08T13:38:19.761Z,101498.18
2018-06-08T13:40:48.801Z,101496.70
2018-06-08T13:43:18.389Z,101485.73
2018-06-08T13:45:47.427Z,101489.78
2018-06-08T13:48:16.496Z,101493.57
2018-06-08T13:50:45.573Z,101488.51
2018-06-08T13:53:14.605Z,101486.66
2018-06-08T13:55:43.706Z,101477.75
2018-06-08T13:58:12.676Z,101477.63
2018-06-08T14:00:41.712Z,101476.70
2018-06-08T14:03:10.737Z,101471.72
2018-06-08T14:05:39.785Z,101475.36
2018-06-08T14:08:08.804Z,101469.33
2018-06-08T14:23:37.848Z,101457.16
2018-06-08T14:26:06.874Z,101455.15
2018-06-08T14:28:35.872Z,101452.70
2018-06-08T14:31:04.938Z,101446.12
2018-06-08T14:33:33.972Z,101447.75
2018-06-08T14:36:02.968Z,101446.46
2018-06-08T14:38:32.020Z,101445.81
2018-06-08T14:41:02.001Z,101448.27
2018-06-08T14:43:31.052Z,101445.55
2018-06-08T14:46:00.160Z,101443.19
2018-06-08T14:48:29.276Z,101447.56
2018-06-08T15:03:58.334Z,101449.22
2018-06-08T15:06:27.340Z,101449.43
2018-06-08T15:08:56.351Z,101445.60
2018-06-08T15:11:25.490Z,101439.50
2018-06-08T15:13:55.519Z,101440.59
2018-06-08T15:16:24.568Z,101431.84
2018-06-08T15:18:53.612Z,101428.84
2018-06-08T15:21:22.816Z,101428.84
2018-06-08T15:23:51.828Z,101432.02
2018-06-08T15:26:20.899Z,101426.05
2018-06-08T15:28:49.925Z,101428.30
2018-06-08T15:31:19.292Z,101430.45
2018-06-08T15:33:49.156Z,101428.20
2018-06-08T15:36:18.257Z,101426.76
2018-06-08T15:38:47.316Z,101416.75
2018-06-08T15:41:16.367Z,101414.80
2018-06-08T15:43:45.773Z,101416.89
2018-06-08T15:46:15.161Z,101417.91
2018-06-08T15:48:44.504Z,101415.77
2018-06-08T15:51:13.590Z,101415.84
2018-06-08T15:53:42.708Z,101419.66
2018-06-08T15:56:11.691Z,101416.94
2018-06-08T15:58:40.715Z,101412.77
2018-06-08T16:01:09.687Z,101411.48
2018-06-08T16:03:38.735Z,101412.84
2018-06-08T16:06:07.761Z,101417.01
2018-06-08T16:08:36.813Z,101414.61
2018-06-08T16:11:05.967Z,101413.25
2018-06-08T16:13:35.039Z,101411.81
2018-06-08T16:16:04.075Z,101408.75
2018-06-08T16:18:33.127Z,101411.23
2018-06-08T16:21:02.151Z,101414.55
2018-06-08T16:23:31.181Z,101421.25
2018-06-08T16:26:00.181Z,101422.20
2018-06-08T16:28:29.554Z,101417.38
2018-06-08T16:30:58.974Z,101413.63
2018-06-08T16:33:28.013Z,101420.11
2018-06-08T16:35:57.296Z,101416.73
2018-06-08T16:38:26.316Z,101422.34
2018-06-08T16:40:55.328Z,101420.77
2018-06-08T16:43:24.590Z,101430.78
2018-06-08T16:45:53.616Z,101429.86
2018-06-08T16:48:22.670Z,101425.23
2018-06-08T16:50:51.683Z,101427.23
2018-06-08T16:53:21.759Z,101423.66
2018-06-08T16:55:51.571Z,101425.70
2018-06-08T16:58:20.766Z,101430.73
2018-06-08T17:00:49.946Z,101439.16
2018-06-08T17:03:19.010Z,101450.20
2018-06-08T17:05:47.989Z,101444.66
2018-06-08T17:08:17.030Z,101439.06
2018-06-08T17:10:46.082Z,101442.02
2018-06-08T17:13:15.121Z,101447.72
2018-06-08T17:15:44.792Z,101445.98
2018-06-08T17:18:13.803Z,101449.14
2018-06-08T17:20:42.836Z,101455.06
2018-06-08T17:23:11.851Z,101458.84
2018-06-08T17:25:40.838Z,101458.20
2018-06-08T17:28:10.044Z,101454.13
2018-06-08T17:30:39.136Z,101454.62
2018-06-08T17:33:08.416Z,101451.52
2018-06-08T17:35:37.429Z,101466.47
2018-06-08T17:38:06.470Z,101458.45
2018-06-08T17:40:36.276Z,101470.08
2018-06-08T17:43:05.364Z,101461.56
2018-06-08T17:45:34.885Z,101467.59
2018-06-08T17:48:04.650Z,101475.16
2018-06-08T17:50:33.838Z,101470.20
2018-06-08T17:53:02.858Z,101477.84
2018-06-08T18:08:31.964Z,101481.58
2018-06-08T18:11:01.560Z,101487.06
2018-06-08T18:13:30.914Z,101490.49
2018-06-08T18:16:00.014Z,101490.72
2018-06-08T18:18:29.128Z,101494.69
2018-06-08T18:20:59.217Z,101506.48
2018-06-08T18:23:28.277Z,101505.00
2018-06-08T18:25:57.308Z,101506.74
2018-06-08T18:28:27.249Z,101509.83
2018-06-08T18:30:56.313Z,101501.44
2018-06-08T18:33:25.411Z,101504.87
2018-06-08T18:35:54.504Z,101502.69
2018-06-08T18:38:23.572Z,101506.03
2018-06-08T18:40:52.718Z,101500.08
2018-06-08T18:43:21.759Z,101500.08
2018-06-08T18:45:51.390Z,101500.08
2018-06-08T18:48:20.517Z,101498.94
2018-06-08T18:50:49.578Z,101498.59
2018-06-08T18:53:18.653Z,101494.05
2018-06-08T18:55:47.832Z,101484.45
2018-06-08T18:58:16.886Z,101489.58
2018-06-08T19:00:45.957Z,101490.13
2018-06-08T19:03:15.039Z,101491.30
2018-06-08T19:05:44.057Z,101493.52
2018-06-08T19:08:13.091Z,101494.09
2018-06-08T19:10:42.241Z,101495.10
2018-06-08T19:13:11.279Z,101487.97
2018-06-08T19:15:40.301Z,101497.50
2018-06-08T19:18:09.448Z,101485.71
2018-06-08T19:20:38.833Z,101494.27
2018-06-08T19:23:07.846Z,101498.84
2018-06-08T19:25:37.129Z,101500.72
2018-06-08T19:28:06.171Z,101494.51
2018-06-08T19:30:35.216Z,101498.91
2018-06-08T19:33:04.358Z,101497.61
2018-06-08T19:35:33.416Z,101486.12
2018-06-08T19:38:02.516Z,101489.36
2018-06-08T19:40:31.540Z,101484.16
2018-06-08T19:43:00.607Z,101490.72
2018-06-08T19:45:29.645Z,101491.80
2018-06-08T19:47:58.781Z,101492.30
2018-06-08T19:50:27.789Z,101488.81
2018-06-08T19:52:56.786Z,101489.46
2018-06-08T19:55:25.914Z,101486.98
2018-06-08T19:57:54.972Z,101487.06
2018-06-08T20:00:24.069Z,101493.77
2018-06-08T20:02:53.359Z,101493.41
2018-06-08T20:05:22.400Z,101488.12
2018-06-08T20:07:51.416Z,101495.87
2018-06-08T20:10:20.432Z,101499.81
2018-06-08T20:12:50.369Z,101497.48
2018-06-08T20:15:19.411Z,101497.69
2018-06-08T20:17:48.491Z,101507.59
2018-06-08T20:20:17.517Z,101505.86
2018-06-08T20:22:46.532Z,101514.14
2018-06-08T20:25:15.696Z,101520.97
2018-06-08T20:27:44.764Z,101519.22
2018-06-08T20:30:13.785Z,101522.88
2018-06-08T20:32:42.796Z,101523.80
2018-06-08T20:35:11.841Z,101517.86
2018-06-08T20:37:40.976Z,101522.13
2018-06-08T20:40:10.026Z,101520.75
2018-06-08T20:42:39.353Z,101522.16
2018-06-08T20:45:08.366Z,101518.69
2018-06-08T20:47:37.431Z,101521.67
2018-06-08T20:50:06.502Z,101524.38
2018-06-08T20:52:35.529Z,101520.46
2018-06-08T20:55:04.588Z,101522.55
2018-06-08T20:57:33.636Z,101528.24
2018-06-08T21:00:02.951Z,101519.81
2018-06-08T21:02:32.284Z,101522.38
2018-06-08T21:05:01.330Z,101525.75
2018-06-08T21:07:30.404Z,101521.39
2018-06-08T21:09:59.463Z,101528.20
2018-06-08T21:12:28.475Z,101530.30
2018-06-08T21:14:57.610Z,101531.44
2018-06-08T21:17:26.598Z,101533.55
2018-06-08T21:19:55.652Z,101537.86
2018-06-08T21:22:25.312Z,101533.52
2018-06-08T21:24:54.334Z,101538.84
2018-06-08T21:27:23.352Z,101536.83
2018-06-08T21:29:52.373Z,101538.02
2018-06-08T21:32:27.088Z,101545.55
2018-06-08T21:34:56.126Z,101532.58
2018-06-08T21:37:25.152Z,101536.44
2018-06-08T21:39:54.128Z,101532.14
2018-06-08T21:42:23.227Z,101530.53
2018-06-08T21:44:52.376Z,101530.77
2018-06-08T21:47:21.488Z,101525.70
2018-06-08T21:49:50.525Z,101530.77
2018-06-08T21:52:19.712Z,101527.22
2018-06-08T21:54:48.989Z,101525.88
2018-06-08T21:57:18.332Z,101521.83
2018-06-08T21:59:47.352Z,101522.88
2018-06-08T22:02:16.422Z,101526.09
2018-06-08T22:04:45.804Z,101527.72
2018-06-08T22:07:15.083Z,101525.37
2018-06-08T22:09:44.241Z,101528.11
2018-06-08T22:12:13.657Z,101526.49
2018-06-08T22:14:42.663Z,101532.17
2018-06-08T22:17:12.519Z,101529.88
2018-06-08T22:19:41.591Z,101528.44
2018-06-08T22:22:10.592Z,101522.89
2018-06-08T22:24:39.625Z,101522.92
2018-06-08T22:27:08.962Z,101522.17
2018-06-08T22:29:37.992Z,101530.07
2018-06-08T22:32:07.024Z,101525.83
2018-06-08T22:34:36.380Z,101524.00
2018-06-08T22:37:05.456Z,101524.34
2018-06-08T22:39:34.904Z,101523.80
2018-06-08T22:42:04.043Z,101519.52
2018-06-08T22:44:33.364Z,101522.50
2018-06-08T22:47:02.728Z,101516.72
2018-06-08T22:49:31.730Z,101512.64
2018-06-08T22:52:00.794Z,101514.94
2018-06-08T22:54:29.828Z,101512.75
2018-06-08T22:56:58.970Z,101514.16
2018-06-08T22:59:28.090Z,101507.45
2018-06-08T23:01:57.431Z,101509.27
2018-06-08T23:04:26.446Z,101505.88
2018-06-08T23:06:55.448Z,101500.89
2018-06-08T23:09:24.512Z,101500.86
2018-06-08T23:11:53.534Z,101501.00
2018-06-08T23:14:22.609Z,101497.50
2018-06-08T23:16:51.996Z,101497.50
2018-06-08T23:19:21.100Z,101504.07
2018-06-08T23:21:50.128Z,101497.20
2018-06-08T23:24:19.168Z,101501.89
2018-06-08T23:26:53.848Z,101501.36
2018-06-08T23:29:29.044Z,101500.36
2018-06-08T23:31:58.061Z,101489.58
2018-06-08T23:34:27.120Z,101496.15
2018-06-08T23:36:56.936Z,101492.39
2018-06-08T23:39:26.356Z,101488.82
2018-06-08T23:41:55.421Z,101483.48
2018-06-08T23:44:24.450Z,101485.94
2018-06-08T23:46:53.524Z,101482.48
2018-06-08T23:49:23.020Z,101474.73
2018-06-08T23:51:52.588Z,101476.05
2018-06-08T23:54:21.756Z,101477.05
2018-06-08T23:56:51.158Z,101476.63
2018-06-08T23:59:21.204Z,101483.98
